sensor_id;sensor_type;location;lat;lon;timestamp;P1;P2;P0
72509;PMS5003;60532;56.114;40.350;2023-12-29T00:00:01;3.75;2.00;0.00
72509;PMS5003;60532;56.114;40.350;2023-12-29T00:02:01;10.00;6.50;3.50
72509;PMS5003;60532;56.114;40.350;2023-12-29T00:04:01;4.00;4.00;1.00
72509;PMS5003;60532;56.114;40.350;2023-12-29T00:06:02;7.00;4.00;1.00
72509;PMS5003;60532;56.114;40.350;2023-12-29T00:08:03;7.00;6.00;3.00
72509;PMS5003;60532;56.114;40.350;2023-12-29T00:10:04;5.75;5.50;1.00
72509;PMS5003;60532;56.114;40.350;2023-12-29T00:12:04;9.75;9.00;3.00
72509;PMS5003;60532;56.114;40.350;2023-12-29T00:14:05;5.50;0.50;0.00
72509;PMS5003;60532;56.114;40.350;2023-12-29T00:16:05;7.00;6.00;4.00
72509;PMS5003;60532;56.114;40.350;2023-12-29T00:18:06;7.00;6.25;3.25
72509;PMS5003;60532;56.114;40.350;2023-12-29T00:20:07;5.50;5.50;3.00
72509;PMS5003;60532;56.114;40.350;2023-12-29T00:22:10;11.20;6.20;4.00
72509;PMS5003;60532;56.114;40.350;2023-12-29T00:24:11;6.75;6.50;3.50
72509;PMS5003;60532;56.114;40.350;2023-12-29T00:26:11;6.25;3.00;1.00
72509;PMS5003;60532;56.114;40.350;2023-12-29T00:28:11;12.00;9.00;4.00
72509;PMS5003;60532;56.114;40.350;2023-12-29T00:30:12;7.50;6.50;2.50
72509;PMS5003;60532;56.114;40.350;2023-12-29T00:32:12;10.50;9.00;3.50
72509;PMS5003;60532;56.114;40.350;2023-12-29T00:34:13;12.00;9.50;5.00
72509;PMS5003;60532;56.114;40.350;2023-12-29T00:36:16;11.50;9.75;4.00
72509;PMS5003;60532;56.114;40.350;2023-12-29T00:38:17;14.20;9.20;3.40
72509;PMS5003;60532;56.114;40.350;2023-12-29T00:40:17;10.00;9.50;4.00
72509;PMS5003;60532;56.114;40.350;2023-12-29T00:42:18;15.50;12.75;7.00
72509;PMS5003;60532;56.114;40.350;2023-12-29T00:44:18;20.50;16.00;6.00
72509;PMS5003;60532;56.114;40.350;2023-12-29T00:46:19;13.00;12.75;6.00
72509;PMS5003;60532;56.114;40.350;2023-12-29T00:48:19;15.00;13.00;6.00
72509;PMS5003;60532;56.114;40.350;2023-12-29T00:50:20;17.50;12.00;6.00
72509;PMS5003;60532;56.114;40.350;2023-12-29T00:52:20;15.25;12.00;7.00
72509;PMS5003;60532;56.114;40.350;2023-12-29T00:54:21;12.00;11.50;6.00
72509;PMS5003;60532;56.114;40.350;2023-12-29T00:56:21;16.50;9.75;4.00
72509;PMS5003;60532;56.114;40.350;2023-12-29T00:58:21;12.00;12.00;4.00
72509;PMS5003;60532;56.114;40.350;2023-12-29T01:00:22;20.50;16.00;6.75
72509;PMS5003;60532;56.114;40.350;2023-12-29T01:02:22;14.25;12.25;6.00
72509;PMS5003;60532;56.114;40.350;2023-12-29T01:04:23;17.50;13.00;6.50
72509;PMS5003;60532;56.114;40.350;2023-12-29T01:06:23;17.75;11.00;6.75
72509;PMS5003;60532;56.114;40.350;2023-12-29T01:08:23;9.50;7.50;3.25
72509;PMS5003;60532;56.114;40.350;2023-12-29T01:10:24;13.75;9.25;4.00
72509;PMS5003;60532;56.114;40.350;2023-12-29T01:12:25;24.00;14.00;7.00
72509;PMS5003;60532;56.114;40.350;2023-12-29T01:14:25;14.60;12.00;5.60
72509;PMS5003;60532;56.114;40.350;2023-12-29T01:16:26;17.25;9.75;3.50
72509;PMS5003;60532;56.114;40.350;2023-12-29T01:18:27;16.00;14.40;7.00
72509;PMS5003;60532;56.114;40.350;2023-12-29T01:20:27;23.00;19.00;8.00
72509;PMS5003;60532;56.114;40.350;2023-12-29T01:22:28;14.00;11.00;6.75
72509;PMS5003;60532;56.114;40.350;2023-12-29T01:24:28;15.00;9.75;6.50
72509;PMS5003;60532;56.114;40.350;2023-12-29T01:26:28;15.50;12.50;4.00
72509;PMS5003;60532;56.114;40.350;2023-12-29T01:28:29;17.25;12.00;6.00
72509;PMS5003;60532;56.114;40.350;2023-12-29T01:30:29;12.25;10.50;3.50
72509;PMS5003;60532;56.114;40.350;2023-12-29T01:32:30;22.25;15.25;7.00
72509;PMS5003;60532;56.114;40.350;2023-12-29T01:34:30;5.00;5.00;5.00
72509;PMS5003;60532;56.114;40.350;2023-12-29T01:36:32;20.60;15.40;7.00
72509;PMS5003;60532;56.114;40.350;2023-12-29T01:38:33;12.00;9.50;3.25
72509;PMS5003;60532;56.114;40.350;2023-12-29T01:40:41;11.50;11.50;4.00
72509;PMS5003;60532;56.114;40.350;2023-12-29T01:42:42;19.40;12.80;8.00
72509;PMS5003;60532;56.114;40.350;2023-12-29T01:44:42;15.00;13.00;7.00
72509;PMS5003;60532;56.114;40.350;2023-12-29T01:46:44;23.60;15.20;7.80
72509;PMS5003;60532;56.114;40.350;2023-12-29T01:48:46;17.60;15.00;9.00
72509;PMS5003;60532;56.114;40.350;2023-12-29T01:50:46;20.50;14.00;8.50
72509;PMS5003;60532;56.114;40.350;2023-12-29T01:52:47;16.75;13.00;7.50
72509;PMS5003;60532;56.114;40.350;2023-12-29T01:54:49;16.00;16.00;9.00
72509;PMS5003;60532;56.114;40.350;2023-12-29T01:56:52;17.80;16.00;6.40
72509;PMS5003;60532;56.114;40.350;2023-12-29T01:58:55;15.40;12.00;6.80
72509;PMS5003;60532;56.114;40.350;2023-12-29T02:00:56;15.50;13.75;6.00
72509;PMS5003;60532;56.114;40.350;2023-12-29T02:02:56;18.00;12.00;6.00
72509;PMS5003;60532;56.114;40.350;2023-12-29T02:04:56;22.25;18.00;7.00
72509;PMS5003;60532;56.114;40.350;2023-12-29T02:06:58;22.80;17.60;9.00
72509;PMS5003;60532;56.114;40.350;2023-12-29T02:08:58;19.50;12.00;4.00
72509;PMS5003;60532;56.114;40.350;2023-12-29T02:10:59;20.50;17.00;9.00
72509;PMS5003;60532;56.114;40.350;2023-12-29T02:12:59;16.50;15.25;7.50
72509;PMS5003;60532;56.114;40.350;2023-12-29T02:15:00;14.50;13.00;6.00
72509;PMS5003;60532;56.114;40.350;2023-12-29T02:19:08;19.80;16.40;9.00
72509;PMS5003;60532;56.114;40.350;2023-12-29T02:21:12;18.60;16.00;7.00
72509;PMS5003;60532;56.114;40.350;2023-12-29T02:23:13;18.60;14.60;7.00
72509;PMS5003;60532;56.114;40.350;2023-12-29T02:25:14;21.60;13.00;7.00
72509;PMS5003;60532;56.114;40.350;2023-12-29T02:29:15;22.25;18.00;10.00
72509;PMS5003;60532;56.114;40.350;2023-12-29T02:31:19;22.40;15.00;7.40
72509;PMS5003;60532;56.114;40.350;2023-12-29T02:33:21;23.20;16.60;9.00
72509;PMS5003;60532;56.114;40.350;2023-12-29T02:35:28;20.60;18.40;7.00
72509;PMS5003;60532;56.114;40.350;2023-12-29T02:37:28;19.00;13.80;8.60
72509;PMS5003;60532;56.114;40.350;2023-12-29T02:39:29;15.50;15.00;6.00
72509;PMS5003;60532;56.114;40.350;2023-12-29T02:41:30;20.75;16.75;9.00
72509;PMS5003;60532;56.114;40.350;2023-12-29T02:43:33;14.75;13.00;6.00
72509;PMS5003;60532;56.114;40.350;2023-12-29T02:45:33;21.40;16.40;9.00
72509;PMS5003;60532;56.114;40.350;2023-12-29T02:47:33;21.75;15.25;8.50
72509;PMS5003;60532;56.114;40.350;2023-12-29T02:49:34;22.25;15.75;8.00
72509;PMS5003;60532;56.114;40.350;2023-12-29T02:51:34;15.00;13.50;7.00
72509;PMS5003;60532;56.114;40.350;2023-12-29T02:53:35;25.75;21.50;10.50
72509;PMS5003;60532;56.114;40.350;2023-12-29T02:55:35;19.00;12.50;9.00
72509;PMS5003;60532;56.114;40.350;2023-12-29T02:57:36;15.50;14.25;4.00
72509;PMS5003;60532;56.114;40.350;2023-12-29T02:59:36;25.75;17.50;9.00
72509;PMS5003;60532;56.114;40.350;2023-12-29T03:01:37;21.00;15.60;9.00
72509;PMS5003;60532;56.114;40.350;2023-12-29T03:03:37;17.50;16.00;9.00
72509;PMS5003;60532;56.114;40.350;2023-12-29T03:05:40;22.00;14.60;7.00
72509;PMS5003;60532;56.114;40.350;2023-12-29T03:07:40;18.25;18.00;11.00
72509;PMS5003;60532;56.114;40.350;2023-12-29T03:09:41;19.00;15.25;9.50
72509;PMS5003;60532;56.114;40.350;2023-12-29T03:11:41;19.00;15.00;6.25
72509;PMS5003;60532;56.114;40.350;2023-12-29T03:13:42;15.75;11.50;4.00
72509;PMS5003;60532;56.114;40.350;2023-12-29T03:15:42;19.50;18.50;9.25
72509;PMS5003;60532;56.114;40.350;2023-12-29T03:17:43;21.50;16.50;6.25
72509;PMS5003;60532;56.114;40.350;2023-12-29T03:19:43;22.25;18.25;8.50
72509;PMS5003;60532;56.114;40.350;2023-12-29T03:21:43;23.75;14.50;9.25
72509;PMS5003;60532;56.114;40.350;2023-12-29T03:23:44;24.25;14.00;7.00
72509;PMS5003;60532;56.114;40.350;2023-12-29T03:25:44;17.00;17.00;9.00
72509;PMS5003;60532;56.114;40.350;2023-12-29T03:27:45;27.25;18.00;9.50
72509;PMS5003;60532;56.114;40.350;2023-12-29T03:29:45;22.25;14.00;7.00
72509;PMS5003;60532;56.114;40.350;2023-12-29T03:31:45;16.25;14.75;5.50
72509;PMS5003;60532;56.114;40.350;2023-12-29T03:33:46;20.25;18.50;8.00
72509;PMS5003;60532;56.114;40.350;2023-12-29T03:35:46;25.75;18.00;10.50
72509;PMS5003;60532;56.114;40.350;2023-12-29T03:37:47;21.25;15.00;6.50
72509;PMS5003;60532;56.114;40.350;2023-12-29T03:39:47;21.75;15.00;7.00
72509;PMS5003;60532;56.114;40.350;2023-12-29T03:41:48;19.25;15.75;8.00
72509;PMS5003;60532;56.114;40.350;2023-12-29T03:43:48;15.50;13.50;7.00
72509;PMS5003;60532;56.114;40.350;2023-12-29T03:45:48;15.25;12.50;6.00
72509;PMS5003;60532;56.114;40.350;2023-12-29T03:47:49;21.25;15.00;9.00
72509;PMS5003;60532;56.114;40.350;2023-12-29T03:49:50;25.25;20.00;9.00
72509;PMS5003;60532;56.114;40.350;2023-12-29T03:51:50;17.00;14.50;6.75
72509;PMS5003;60532;56.114;40.350;2023-12-29T03:53:50;13.75;13.75;9.00
72509;PMS5003;60532;56.114;40.350;2023-12-29T03:55:51;25.25;19.75;7.00
72509;PMS5003;60532;56.114;40.350;2023-12-29T03:57:52;20.60;18.80;9.20
72509;PMS5003;60532;56.114;40.350;2023-12-29T03:59:53;14.00;10.50;3.00
72509;PMS5003;60532;56.114;40.350;2023-12-29T04:01:53;17.25;15.00;7.50
72509;PMS5003;60532;56.114;40.350;2023-12-29T04:03:53;14.25;10.00;6.75
72509;PMS5003;60532;56.114;40.350;2023-12-29T04:05:54;20.75;13.00;7.00
72509;PMS5003;60532;56.114;40.350;2023-12-29T04:07:54;18.00;16.00;8.00
72509;PMS5003;60532;56.114;40.350;2023-12-29T04:09:55;14.00;12.00;10.50
72509;PMS5003;60532;56.114;40.350;2023-12-29T04:11:55;16.50;12.75;6.50
72509;PMS5003;60532;56.114;40.350;2023-12-29T04:13:56;19.50;15.25;7.00
72509;PMS5003;60532;56.114;40.350;2023-12-29T04:15:56;16.25;14.25;8.00
72509;PMS5003;60532;56.114;40.350;2023-12-29T04:17:56;23.25;19.25;8.00
72509;PMS5003;60532;56.114;40.350;2023-12-29T04:19:57;16.75;12.25;7.00
72509;PMS5003;60532;56.114;40.350;2023-12-29T04:21:57;19.00;18.00;9.00
72509;PMS5003;60532;56.114;40.350;2023-12-29T04:23:58;26.50;16.75;10.00
72509;PMS5003;60532;56.114;40.350;2023-12-29T04:25:59;24.25;15.25;8.50
72509;PMS5003;60532;56.114;40.350;2023-12-29T04:27:59;18.00;12.00;3.75
72509;PMS5003;60532;56.114;40.350;2023-12-29T04:29:59;22.75;15.75;9.25
72509;PMS5003;60532;56.114;40.350;2023-12-29T04:32:00;20.50;20.50;9.25
72509;PMS5003;60532;56.114;40.350;2023-12-29T04:34:00;25.00;18.00;9.75
72509;PMS5003;60532;56.114;40.350;2023-12-29T04:36:01;22.50;18.50;10.00
72509;PMS5003;60532;56.114;40.350;2023-12-29T04:38:01;23.75;15.50;9.00
72509;PMS5003;60532;56.114;40.350;2023-12-29T04:40:02;24.75;20.00;12.00
72509;PMS5003;60532;56.114;40.350;2023-12-29T04:42:02;12.25;9.50;4.00
72509;PMS5003;60532;56.114;40.350;2023-12-29T04:44:03;18.00;15.00;9.25
72509;PMS5003;60532;56.114;40.350;2023-12-29T04:46:03;18.75;15.75;8.50
72509;PMS5003;60532;56.114;40.350;2023-12-29T04:48:04;18.00;14.00;6.25
72509;PMS5003;60532;56.114;40.350;2023-12-29T04:50:05;12.50;11.50;6.25
72509;PMS5003;60532;56.114;40.350;2023-12-29T04:52:08;12.60;11.20;3.80
72509;PMS5003;60532;56.114;40.350;2023-12-29T04:54:09;19.50;16.50;9.00
72509;PMS5003;60532;56.114;40.350;2023-12-29T04:56:09;21.25;15.25;7.00
72509;PMS5003;60532;56.114;40.350;2023-12-29T04:58:09;17.75;14.00;7.50
72509;PMS5003;60532;56.114;40.350;2023-12-29T05:00:10;12.25;9.75;6.50
72509;PMS5003;60532;56.114;40.350;2023-12-29T05:02:10;13.50;12.25;7.00
72509;PMS5003;60532;56.114;40.350;2023-12-29T05:04:11;17.00;12.25;6.00
72509;PMS5003;60532;56.114;40.350;2023-12-29T05:06:11;16.50;12.00;6.25
72509;PMS5003;60532;56.114;40.350;2023-12-29T05:08:12;18.00;12.75;6.00
72509;PMS5003;60532;56.114;40.350;2023-12-29T05:10:12;16.75;12.75;6.25
72509;PMS5003;60532;56.114;40.350;2023-12-29T05:12:14;14.00;12.75;6.00
72509;PMS5003;60532;56.114;40.350;2023-12-29T05:14:14;15.60;12.00;6.00
72509;PMS5003;60532;56.114;40.350;2023-12-29T05:16:15;13.50;11.25;6.00
72509;PMS5003;60532;56.114;40.350;2023-12-29T05:18:15;16.00;12.00;6.00
72509;PMS5003;60532;56.114;40.350;2023-12-29T05:20:16;14.25;12.00;6.00
72509;PMS5003;60532;56.114;40.350;2023-12-29T05:22:16;17.75;15.75;7.00
72509;PMS5003;60532;56.114;40.350;2023-12-29T05:24:17;17.20;11.20;6.00
72509;PMS5003;60532;56.114;40.350;2023-12-29T05:26:18;12.75;10.50;4.50
72509;PMS5003;60532;56.114;40.350;2023-12-29T05:28:18;12.75;9.00;6.00
72509;PMS5003;60532;56.114;40.350;2023-12-29T05:30:19;17.25;12.00;6.00
72509;PMS5003;60532;56.114;40.350;2023-12-29T05:32:19;18.75;13.00;6.00
72509;PMS5003;60532;56.114;40.350;2023-12-29T05:34:20;18.75;11.00;4.00
72509;PMS5003;60532;56.114;40.350;2023-12-29T05:36:20;12.00;8.50;3.25
72509;PMS5003;60532;56.114;40.350;2023-12-29T05:38:20;14.75;10.50;5.00
72509;PMS5003;60532;56.114;40.350;2023-12-29T05:40:21;14.50;9.00;6.00
72509;PMS5003;60532;56.114;40.350;2023-12-29T05:42:21;12.50;12.50;6.00
72509;PMS5003;60532;56.114;40.350;2023-12-29T05:44:22;12.25;9.75;6.25
72509;PMS5003;60532;56.114;40.350;2023-12-29T05:46:22;18.25;12.75;5.50
72509;PMS5003;60532;56.114;40.350;2023-12-29T05:48:23;15.00;12.25;6.25
72509;PMS5003;60532;56.114;40.350;2023-12-29T05:50:36;9.40;8.60;3.40
72509;PMS5003;60532;56.114;40.350;2023-12-29T05:52:45;10.60;9.00;2.40
72509;PMS5003;60532;56.114;40.350;2023-12-29T05:54:49;9.80;9.80;5.20
72509;PMS5003;60532;56.114;40.350;2023-12-29T05:56:50;10.75;8.50;5.50
72509;PMS5003;60532;56.114;40.350;2023-12-29T05:58:50;16.25;11.00;4.50
72509;PMS5003;60532;56.114;40.350;2023-12-29T06:00:51;9.75;9.75;6.00
72509;PMS5003;60532;56.114;40.350;2023-12-29T06:02:51;7.00;6.00;1.00
72509;PMS5003;60532;56.114;40.350;2023-12-29T06:04:52;9.25;6.00;4.00
72509;PMS5003;60532;56.114;40.350;2023-12-29T06:06:52;12.00;8.50;3.25
72509;PMS5003;60532;56.114;40.350;2023-12-29T06:08:52;11.50;10.00;4.50
72509;PMS5003;60532;56.114;40.350;2023-12-29T06:10:53;14.00;9.00;3.25
72509;PMS5003;60532;56.114;40.350;2023-12-29T06:12:53;9.25;6.75;3.00
72509;PMS5003;60532;56.114;40.350;2023-12-29T06:14:54;12.75;5.50;1.00
72509;PMS5003;60532;56.114;40.350;2023-12-29T06:16:54;8.00;7.50;4.00
72509;PMS5003;60532;56.114;40.350;2023-12-29T06:18:54;9.25;6.75;4.00
72509;PMS5003;60532;56.114;40.350;2023-12-29T06:20:55;9.75;7.00;4.00
72509;PMS5003;60532;56.114;40.350;2023-12-29T06:22:55;14.00;9.75;5.00
72509;PMS5003;60532;56.114;40.350;2023-12-29T06:24:56;12.75;9.00;4.00
72509;PMS5003;60532;56.114;40.350;2023-12-29T06:26:56;11.00;9.00;3.00
72509;PMS5003;60532;56.114;40.350;2023-12-29T06:28:56;14.00;14.00;6.00
72509;PMS5003;60532;56.114;40.350;2023-12-29T06:30:57;14.50;11.00;4.00
72509;PMS5003;60532;56.114;40.350;2023-12-29T06:32:57;18.75;10.00;4.50
72509;PMS5003;60532;56.114;40.350;2023-12-29T06:34:58;25.00;16.00;7.00
72509;PMS5003;60532;56.114;40.350;2023-12-29T06:36:58;18.75;13.50;7.00
72509;PMS5003;60532;56.114;40.350;2023-12-29T06:38:59;14.50;12.25;6.00
72509;PMS5003;60532;56.114;40.350;2023-12-29T06:41:01;20.60;15.60;7.00
72509;PMS5003;60532;56.114;40.350;2023-12-29T06:43:01;21.00;12.40;5.60
72509;PMS5003;60532;56.114;40.350;2023-12-29T06:45:02;17.00;12.00;6.00
72509;PMS5003;60532;56.114;40.350;2023-12-29T06:47:02;25.00;15.50;6.75
72509;PMS5003;60532;56.114;40.350;2023-12-29T06:49:08;20.20;13.40;7.00
72509;PMS5003;60532;56.114;40.350;2023-12-29T06:51:08;21.60;11.20;6.00
72509;PMS5003;60532;56.114;40.350;2023-12-29T06:53:10;16.00;12.20;6.00
72509;PMS5003;60532;56.114;40.350;2023-12-29T06:55:10;10.50;10.50;6.00
72509;PMS5003;60532;56.114;40.350;2023-12-29T06:57:11;17.00;11.25;6.50
72509;PMS5003;60532;56.114;40.350;2023-12-29T06:59:14;6.00;4.00;1.40
72509;PMS5003;60532;56.114;40.350;2023-12-29T07:01:15;12.75;10.25;4.50
72509;PMS5003;60532;56.114;40.350;2023-12-29T07:03:16;13.00;13.00;7.00
72509;PMS5003;60532;56.114;40.350;2023-12-29T07:05:16;15.50;13.50;5.50
72509;PMS5003;60532;56.114;40.350;2023-12-29T07:07:16;4.50;2.00;0.00
72509;PMS5003;60532;56.114;40.350;2023-12-29T07:09:17;14.50;12.50;6.00
72509;PMS5003;60532;56.114;40.350;2023-12-29T07:11:17;13.00;9.75;3.75
72509;PMS5003;60532;56.114;40.350;2023-12-29T07:13:18;11.00;8.00;4.00
72509;PMS5003;60532;56.114;40.350;2023-12-29T07:15:19;15.60;15.20;6.00
72509;PMS5003;60532;56.114;40.350;2023-12-29T07:17:19;9.25;9.00;3.00
72509;PMS5003;60532;56.114;40.350;2023-12-29T07:19:20;9.25;9.00;6.00
72509;PMS5003;60532;56.114;40.350;2023-12-29T07:21:20;9.00;9.00;3.00
72509;PMS5003;60532;56.114;40.350;2023-12-29T07:23:21;16.75;12.25;6.50
72509;PMS5003;60532;56.114;40.350;2023-12-29T07:25:21;15.00;10.75;6.75
72509;PMS5003;60532;56.114;40.350;2023-12-29T07:27:21;14.50;12.75;5.00
72509;PMS5003;60532;56.114;40.350;2023-12-29T07:29:22;12.25;7.00;3.00
72509;PMS5003;60532;56.114;40.350;2023-12-29T07:31:22;9.75;8.00;6.00
72509;PMS5003;60532;56.114;40.350;2023-12-29T07:33:23;14.75;11.00;6.00
72509;PMS5003;60532;56.114;40.350;2023-12-29T07:35:24;13.40;11.60;6.00
72509;PMS5003;60532;56.114;40.350;2023-12-29T07:37:24;13.00;9.00;4.00
72509;PMS5003;60532;56.114;40.350;2023-12-29T07:39:25;16.50;10.00;4.00
72509;PMS5003;60532;56.114;40.350;2023-12-29T07:41:25;16.25;10.50;4.00
72509;PMS5003;60532;56.114;40.350;2023-12-29T07:43:27;18.00;12.40;6.20
72509;PMS5003;60532;56.114;40.350;2023-12-29T07:45:27;17.50;12.50;7.00
72509;PMS5003;60532;56.114;40.350;2023-12-29T07:47:28;10.00;8.25;5.00
72509;PMS5003;60532;56.114;40.350;2023-12-29T07:49:28;14.00;7.00;3.25
72509;PMS5003;60532;56.114;40.350;2023-12-29T07:51:29;12.50;10.00;5.50
72509;PMS5003;60532;56.114;40.350;2023-12-29T07:53:29;11.50;9.25;6.00
72509;PMS5003;60532;56.114;40.350;2023-12-29T07:55:30;12.75;11.25;6.00
72509;PMS5003;60532;56.114;40.350;2023-12-29T07:57:31;9.00;9.00;4.00
72509;PMS5003;60532;56.114;40.350;2023-12-29T07:59:31;12.00;9.25;6.00
72509;PMS5003;60532;56.114;40.350;2023-12-29T08:01:31;16.00;11.00;6.00
72509;PMS5003;60532;56.114;40.350;2023-12-29T08:03:32;9.75;8.50;3.75
72509;PMS5003;60532;56.114;40.350;2023-12-29T08:05:32;12.00;11.50;6.00
72509;PMS5003;60532;56.114;40.350;2023-12-29T08:07:34;15.00;10.00;4.80
72509;PMS5003;60532;56.114;40.350;2023-12-29T08:09:34;15.50;12.75;6.00
72509;PMS5003;60532;56.114;40.350;2023-12-29T08:11:35;14.50;10.00;6.25
72509;PMS5003;60532;56.114;40.350;2023-12-29T08:13:35;15.50;10.50;5.50
72509;PMS5003;60532;56.114;40.350;2023-12-29T08:15:35;10.50;9.25;5.00
72509;PMS5003;60532;56.114;40.350;2023-12-29T08:17:37;9.20;9.00;3.40
72509;PMS5003;60532;56.114;40.350;2023-12-29T08:19:38;18.40;9.00;4.80
72509;PMS5003;60532;56.114;40.350;2023-12-29T08:21:38;6.75;6.00;3.25
72509;PMS5003;60532;56.114;40.350;2023-12-29T08:23:39;11.50;10.50;5.00
72509;PMS5003;60532;56.114;40.350;2023-12-29T08:25:39;16.25;9.50;4.00
72509;PMS5003;60532;56.114;40.350;2023-12-29T08:27:40;14.50;12.50;6.00
72509;PMS5003;60532;56.114;40.350;2023-12-29T08:29:41;17.40;13.00;4.80
72509;PMS5003;60532;56.114;40.350;2023-12-29T08:31:42;16.25;11.75;6.00
72509;PMS5003;60532;56.114;40.350;2023-12-29T08:33:43;13.80;9.00;4.00
72509;PMS5003;60532;56.114;40.350;2023-12-29T08:35:43;15.00;10.00;6.00
72509;PMS5003;60532;56.114;40.350;2023-12-29T08:37:44;19.00;10.00;4.00
72509;PMS5003;60532;56.114;40.350;2023-12-29T08:39:46;11.25;10.00;4.50
72509;PMS5003;60532;56.114;40.350;2023-12-29T08:41:46;12.50;10.75;4.50
72509;PMS5003;60532;56.114;40.350;2023-12-29T08:43:47;13.00;9.25;6.50
72509;PMS5003;60532;56.114;40.350;2023-12-29T08:45:48;19.00;7.50;6.25
72509;PMS5003;60532;56.114;40.350;2023-12-29T08:47:48;17.20;12.40;6.00
72509;PMS5003;60532;56.114;40.350;2023-12-29T08:49:49;11.75;9.75;6.00
72509;PMS5003;60532;56.114;40.350;2023-12-29T08:51:49;13.67;10.33;6.00
72509;PMS5003;60532;56.114;40.350;2023-12-29T08:53:50;11.00;11.00;6.00
72509;PMS5003;60532;56.114;40.350;2023-12-29T08:55:50;12.67;10.67;6.00
72509;PMS5003;60532;56.114;40.350;2023-12-29T08:57:51;12.00;11.33;4.67
72509;PMS5003;60532;56.114;40.350;2023-12-29T08:59:51;7.33;6.67;5.33
72509;PMS5003;60532;56.114;40.350;2023-12-29T09:01:52;6.67;6.67;4.00
72509;PMS5003;60532;56.114;40.350;2023-12-29T09:03:52;11.33;11.33;4.33
72509;PMS5003;60532;56.114;40.350;2023-12-29T09:05:52;17.33;10.00;4.00
72509;PMS5003;60532;56.114;40.350;2023-12-29T09:07:54;11.00;10.25;4.00
72509;PMS5003;60532;56.114;40.350;2023-12-29T09:09:54;15.33;13.33;7.00
72509;PMS5003;60532;56.114;40.350;2023-12-29T09:11:55;22.00;8.33;4.00
72509;PMS5003;60532;56.114;40.350;2023-12-29T09:13:55;17.25;12.00;4.75
72509;PMS5003;60532;56.114;40.350;2023-12-29T09:15:56;18.00;11.67;4.00
72509;PMS5003;60532;56.114;40.350;2023-12-29T09:17:57;19.25;11.25;4.25
72509;PMS5003;60532;56.114;40.350;2023-12-29T09:19:57;13.00;10.00;4.00
72509;PMS5003;60532;56.114;40.350;2023-12-29T09:21:58;13.67;8.67;4.00
72509;PMS5003;60532;56.114;40.350;2023-12-29T09:23:58;13.67;10.00;5.33
72509;PMS5003;60532;56.114;40.350;2023-12-29T09:25:59;10.00;8.00;2.33
72509;PMS5003;60532;56.114;40.350;2023-12-29T09:27:59;10.00;7.67;4.00
72509;PMS5003;60532;56.114;40.350;2023-12-29T09:30:00;10.67;6.33;3.33
72509;PMS5003;60532;56.114;40.350;2023-12-29T09:32:00;11.33;8.67;2.33
72509;PMS5003;60532;56.114;40.350;2023-12-29T09:34:01;8.67;5.33;2.33
72509;PMS5003;60532;56.114;40.350;2023-12-29T09:36:02;10.00;7.33;3.33
72509;PMS5003;60532;56.114;40.350;2023-12-29T09:38:02;13.50;6.75;2.25
72509;PMS5003;60532;56.114;40.350;2023-12-29T09:40:04;12.00;10.50;3.00
72509;PMS5003;60532;56.114;40.350;2023-12-29T09:42:05;11.00;7.33;2.33
72509;PMS5003;60532;56.114;40.350;2023-12-29T09:44:06;9.33;6.67;2.67
72509;PMS5003;60532;56.114;40.350;2023-12-29T09:46:09;7.00;5.50;2.00
72509;PMS5003;60532;56.114;40.350;2023-12-29T09:48:10;7.00;6.50;2.00
72509;PMS5003;60532;56.114;40.350;2023-12-29T09:50:12;11.25;5.00;2.00
72509;PMS5003;60532;56.114;40.350;2023-12-29T09:52:13;12.25;9.50;3.50
72509;PMS5003;60532;56.114;40.350;2023-12-29T09:54:16;9.00;8.25;4.00
72509;PMS5003;60532;56.114;40.350;2023-12-29T09:56:16;11.00;8.33;2.33
72509;PMS5003;60532;56.114;40.350;2023-12-29T09:58:19;6.50;6.50;2.00
72509;PMS5003;60532;56.114;40.350;2023-12-29T10:00:21;11.00;8.50;3.00
72509;PMS5003;60532;56.114;40.350;2023-12-29T10:02:22;12.33;5.33;2.33
72509;PMS5003;60532;56.114;40.350;2023-12-29T10:04:22;9.00;8.00;2.33
72509;PMS5003;60532;56.114;40.350;2023-12-29T10:06:25;10.00;7.67;3.33
72509;PMS5003;60532;56.114;40.350;2023-12-29T10:08:27;13.50;9.50;3.50
72509;PMS5003;60532;56.114;40.350;2023-12-29T10:10:28;8.00;7.00;4.00
72509;PMS5003;60532;56.114;40.350;2023-12-29T10:12:30;5.50;5.50;2.25
72509;PMS5003;60532;56.114;40.350;2023-12-29T10:14:35;8.33;8.33;4.00
72509;PMS5003;60532;56.114;40.350;2023-12-29T10:16:38;11.50;7.50;4.00
72509;PMS5003;60532;56.114;40.350;2023-12-29T10:18:45;17.25;10.00;4.00
72509;PMS5003;60532;56.114;40.350;2023-12-29T10:20:52;11.75;7.75;2.50
72509;PMS5003;60532;56.114;40.350;2023-12-29T10:25:00;11.75;10.00;4.00
72509;PMS5003;60532;56.114;40.350;2023-12-29T10:27:01;9.67;7.00;4.00
72509;PMS5003;60532;56.114;40.350;2023-12-29T10:29:01;13.00;9.00;4.00
72509;PMS5003;60532;56.114;40.350;2023-12-29T10:31:03;7.33;7.33;4.00
72509;PMS5003;60532;56.114;40.350;2023-12-29T10:33:04;12.50;7.00;4.50
72509;PMS5003;60532;56.114;40.350;2023-12-29T10:35:08;9.67;7.33;2.00
72509;PMS5003;60532;56.114;40.350;2023-12-29T10:37:09;9.75;7.75;3.50
72509;PMS5003;60532;56.114;40.350;2023-12-29T10:39:14;17.75;10.75;4.25
72509;PMS5003;60532;56.114;40.350;2023-12-29T10:41:16;5.00;5.00;2.00
72509;PMS5003;60532;56.114;40.350;2023-12-29T10:43:21;11.75;9.75;4.00
72509;PMS5003;60532;56.114;40.350;2023-12-29T10:45:22;7.75;5.25;2.50
72509;PMS5003;60532;56.114;40.350;2023-12-29T10:47:24;7.50;5.00;2.25
72509;PMS5003;60532;56.114;40.350;2023-12-29T10:49:25;13.67;9.67;4.00
72509;PMS5003;60532;56.114;40.350;2023-12-29T10:51:28;10.33;7.00;4.67
72509;PMS5003;60532;56.114;40.350;2023-12-29T10:53:30;10.00;10.00;4.25
72509;PMS5003;60532;56.114;40.350;2023-12-29T10:55:31;11.50;7.75;2.50
72509;PMS5003;60532;56.114;40.350;2023-12-29T10:57:32;13.25;10.25;5.25
72509;PMS5003;60532;56.114;40.350;2023-12-29T10:59:35;12.25;8.25;4.50
72509;PMS5003;60532;56.114;40.350;2023-12-29T11:01:36;18.00;11.00;4.00
72509;PMS5003;60532;56.114;40.350;2023-12-29T11:03:36;16.33;8.00;4.00
72509;PMS5003;60532;56.114;40.350;2023-12-29T11:05:37;13.00;7.00;3.67
72509;PMS5003;60532;56.114;40.350;2023-12-29T11:07:39;10.50;10.00;4.75
72509;PMS5003;60532;56.114;40.350;2023-12-29T11:09:40;13.00;10.25;5.00
72509;PMS5003;60532;56.114;40.350;2023-12-29T11:11:41;16.67;15.00;6.00
72509;PMS5003;60532;56.114;40.350;2023-12-29T11:13:42;16.00;13.00;5.25
72509;PMS5003;60532;56.114;40.350;2023-12-29T11:15:43;10.00;10.00;4.00
72509;PMS5003;60532;56.114;40.350;2023-12-29T11:17:46;9.00;7.00;1.00
72509;PMS5003;60532;56.114;40.350;2023-12-29T11:19:50;20.50;10.00;5.00
72509;PMS5003;60532;56.114;40.350;2023-12-29T11:21:51;14.67;8.00;4.00
72509;PMS5003;60532;56.114;40.350;2023-12-29T11:23:53;12.50;11.75;5.50
72509;PMS5003;60532;56.114;40.350;2023-12-29T11:25:53;14.33;4.67;2.33
72509;PMS5003;60532;56.114;40.350;2023-12-29T11:27:54;12.33;12.33;5.33